CMB829 Details

Departure: Keflavík International Airport (BIKF)
Arrival: Ramstein Air Force Base (ETAR)
Route: OSKUM2C OSKUM ROSTI G3 MY G11 PEMOS SUM L7 LONAM UL7 SPY UN852 LNO PFF
Notes: USTRANSCOM CONTRACT FLIGHT


Current Weather Information
BIKF 201000Z 24031G41KT 9999 -SHRA FEW016CB BKN050 M01/M03 Q0994
ETAR 200956Z AUTO 00000KT 9999 CLR 09/M02 A3055 RMK AO2 SLP359 T00851022 $